Terminal Aerodrome Forecast
Issued by NWS

Home | Current Version | Previous Version | Text Only | Print | Product List | Glossary On
Versions: 1 2 3 4 5 6 7 8 9 10 11 12 13 14 15 16 17
000
FTUS43 KMQT 262335
TAFCMX
TAF
KCMX 262335Z 2700/2724 15006KT 1 1/2SM -SN OVC015
     FM270500 14004KT 6SM BR SCT008 OVC012
     FM271400 18005KT P6SM SCT012 BKN020=

USA.gov is the U.S. government's official web portal to all federal, state and local government web resources and services.